Time;durP1;ratioP1;P1;durP2;ratioP2;P2;SDS_P1;SDS_P2;PMS_P1;PMS_P2;Temp;Humidity;BMP_temperature;BMP_pressure;BME280_temperature;BME280_humidity;BME280_pressure;Samples;Min_cycle;Max_cycle;Signal;HPM_P1;HPM_P2
2023/07/29 00:00:27;;;;;;;6.95;4.82;;;;;;;18.06;84.71;99571.56;5069475;28;20202;-65
2023/07/29 00:02:55;;;;;;;5.65;5.10;;;;;;;18.06;84.65;99566.34;5070299;28;20228;-63
2023/07/29 00:05:24;;;;;;;5.82;5.20;;;;;;;18.06;84.41;99568.94;5071043;28;20296;-64
2023/07/29 00:07:51;;;;;;;7.50;5.50;;;;;;;18.06;84.78;99580.22;5070775;28;20206;-64
2023/07/29 00:10:20;;;;;;;6.78;5.20;;;;;;;18.06;84.73;99576.75;5069378;28;20229;-63
2023/07/29 00:12:47;;;;;;;5.95;5.35;;;;;;;18.04;84.66;99581.19;5065314;28;20284;-64
2023/07/29 00:15:15;;;;;;;6.63;5.40;;;;;;;18.03;84.59;99582.13;5069011;28;20213;-65
2023/07/29 00:17:45;;;;;;;8.30;5.95;;;;;;;17.95;84.94;99582.50;5070808;28;20217;-65
2023/07/29 00:20:13;;;;;;;7.68;5.75;;;;;;;17.92;85.05;99584.41;5070789;28;20201;-64
2023/07/29 00:22:41;;;;;;;6.93;6.13;;;;;;;17.92;85.46;99585.25;5070297;28;20250;-64
2023/07/29 00:25:09;;;;;;;9.57;6.53;;;;;;;17.91;85.42;99594.00;5065988;28;20202;-66
2023/07/29 00:27:37;;;;;;;6.32;5.50;;;;;;;17.90;85.78;99592.31;5069858;28;20288;-64
2023/07/29 00:30:06;;;;;;;7.13;6.43;;;;;;;17.89;85.65;99598.44;5066814;28;20561;-65
2023/07/29 00:32:34;;;;;;;6.63;5.68;;;;;;;17.89;85.83;99592.38;5070161;28;20236;-65
2023/07/29 00:35:04;;;;;;;7.85;6.07;;;;;;;17.90;85.74;99591.50;5070202;28;20659;-62
2023/07/29 00:37:32;;;;;;;9.07;7.03;;;;;;;17.88;85.64;99595.91;5067193;28;20255;-63
2023/07/29 00:40:00;;;;;;;8.30;6.40;;;;;;;17.86;85.64;99601.22;5067889;28;20205;-63
2023/07/29 00:42:28;;;;;;;7.35;6.70;;;;;;;17.88;85.63;99599.38;5065659;28;20208;-65
2023/07/29 00:44:56;;;;;;;7.00;6.30;;;;;;;17.85;85.46;99600.34;5067932;28;20292;-64
2023/07/29 00:47:26;;;;;;;7.85;6.43;;;;;;;17.86;85.67;99604.66;5063791;28;20288;-66
2023/07/29 00:49:54;;;;;;;7.80;7.05;;;;;;;17.89;85.91;99600.19;5070567;28;20205;-62
2023/07/29 00:52:24;;;;;;;11.70;7.32;;;;;;;17.86;85.59;99596.00;5067616;28;20197;-63
2023/07/29 00:54:52;;;;;;;9.93;7.30;;;;;;;17.81;85.78;99603.19;5064593;28;20547;-63
2023/07/29 00:57:20;;;;;;;7.13;6.53;;;;;;;17.79;86.01;99605.88;5065746;28;20695;-64
2023/07/29 00:59:48;;;;;;;8.68;6.88;;;;;;;17.80;86.09;99611.94;5066159;28;20231;-64
2023/07/29 01:02:17;;;;;;;8.48;7.30;;;;;;;17.79;85.90;99611.09;5062435;28;20289;-65
2023/07/29 01:04:45;;;;;;;10.18;8.13;;;;;;;17.79;85.92;99610.25;5068877;28;20205;-63
2023/07/29 01:07:21;;;;;;;12.23;7.60;;;;;;;17.77;85.96;99612.06;5070276;28;20685;-63
2023/07/29 01:10:01;;;;;;;9.75;8.75;;;;;;;17.80;85.99;99612.78;5069125;28;20648;-64
2023/07/29 01:12:38;;;;;;;11.65;8.95;;;;;;;17.71;85.64;99610.59;5069857;28;20737;-63
2023/07/29 01:15:14;;;;;;;9.77;8.50;;;;;;;17.68;85.77;99610.72;5067425;28;20208;-63
2023/07/29 01:17:50;;;;;;;10.20;9.15;;;;;;;17.68;85.68;99609.88;5068150;28;20224;-63
2023/07/29 01:20:20;;;;;;;9.18;8.20;;;;;;;17.62;85.24;99605.78;5062861;28;20688;-63
2023/07/29 01:22:49;;;;;;;10.60;9.50;;;;;;;17.56;85.45;99612.16;5071320;28;20557;-62
2023/07/29 01:25:18;;;;;;;11.00;7.97;;;;;;;17.53;85.92;99621.88;5074176;28;20263;-63
2023/07/29 01:27:51;;;;;;;9.38;8.38;;;;;;;17.52;85.71;99622.78;5072486;28;20202;-66
2023/07/29 01:30:20;;;;;;;11.82;9.07;;;;;;;17.52;85.80;99622.78;5070751;28;20930;-63
2023/07/29 01:32:55;;;;;;;11.25;9.00;;;;;;;17.52;85.89;99622.78;5072947;28;20239;-62
2023/07/29 01:35:28;;;;;;;9.10;7.47;;;;;;;17.52;85.68;99630.59;5066159;28;20212;-63
2023/07/29 01:38:00;;;;;;;11.45;8.93;;;;;;;17.47;85.20;99623.00;5066280;28;20221;-63
2023/07/29 01:40:29;;;;;;;8.68;7.80;;;;;;;17.44;85.67;99630.94;5071210;28;20250;-63
2023/07/29 01:42:57;;;;;;;10.40;8.18;;;;;;;17.44;85.38;99627.50;5072591;28;20670;-66
2023/07/29 01:45:26;;;;;;;10.55;8.10;;;;;;;17.39;85.16;99633.78;5066184;28;20613;-64
2023/07/29 01:47:54;;;;;;;9.25;8.25;;;;;;;17.39;85.23;99636.38;5073131;28;20198;-65
2023/07/29 01:50:22;;;;;;;9.40;8.50;;;;;;;17.34;85.21;99633.16;5071610;28;20245;-65
2023/07/29 01:52:50;;;;;;;8.98;7.65;;;;;;;17.31;85.20;99635.91;5069921;28;20619;-64
2023/07/29 01:55:18;;;;;;;12.63;8.57;;;;;;;17.29;85.27;99634.25;5066738;28;20198;-64
2023/07/29 01:57:51;;;;;;;9.35;8.43;;;;;;;17.24;85.53;99629.28;5070664;28;20236;-66
2023/07/29 02:00:22;;;;;;;8.90;7.65;;;;;;;17.23;85.44;99642.34;5071928;28;20213;-64
2023/07/29 02:02:53;;;;;;;12.20;8.70;;;;;;;17.20;85.26;99645.94;5073164;28;20616;-67
2023/07/29 02:05:25;;;;;;;8.82;7.97;;;;;;;17.13;85.11;99639.31;5064118;28;20227;-65
2023/07/29 02:07:53;;;;;;;9.63;7.95;;;;;;;17.07;85.10;99639.59;5068366;28;20610;-64
2023/07/29 02:10:24;;;;;;;9.57;8.20;;;;;;;17.07;85.43;99648.25;5070698;28;20295;-65
2023/07/29 02:12:54;;;;;;;8.90;7.95;;;;;;;17.09;85.57;99654.25;5066270;28;20259;-64
2023/07/29 02:15:24;;;;;;;8.93;8.00;;;;;;;17.09;85.62;99656.84;5070374;28;20561;-65
2023/07/29 02:17:52;;;;;;;8.38;7.18;;;;;;;17.07;85.36;99653.44;5065783;28;20221;-61
2023/07/29 02:20:20;;;;;;;9.45;8.45;;;;;;;17.06;85.44;99656.13;5064438;28;20205;-63
2023/07/29 02:22:48;;;;;;;8.68;7.88;;;;;;;17.03;85.30;99659.72;5073387;28;20280;-63
2023/07/29 02:25:16;;;;;;;10.82;8.55;;;;;;;17.01;85.92;99668.50;5070499;28;20229;-63
2023/07/29 02:27:44;;;;;;;8.85;7.93;;;;;;;16.99;85.62;99671.16;5070455;28;20229;-62
2023/07/29 02:30:14;;;;;;;10.65;8.13;;;;;;;16.98;85.71;99661.69;5071292;28;20209;-64
2023/07/29 02:32:42;;;;;;;9.15;7.88;;;;;;;16.95;85.69;99660.97;5066111;28;20604;-66
2023/07/29 02:35:10;;;;;;;9.18;8.25;;;;;;;16.94;85.45;99662.72;5067518;28;20209;-62
2023/07/29 02:37:38;;;;;;;9.73;8.07;;;;;;;16.90;85.74;99666.38;5071280;28;20704;-62
2023/07/29 02:40:08;;;;;;;9.20;8.30;;;;;;;16.90;86.09;99667.22;5072188;28;20248;-63
2023/07/29 02:42:36;;;;;;;9.98;8.38;;;;;;;16.90;85.98;99659.41;5067829;28;20201;-62
2023/07/29 02:45:09;;;;;;;10.50;9.02;;;;;;;16.89;85.69;99662.91;5072284;28;20216;-64
2023/07/29 02:47:38;;;;;;;9.88;8.88;;;;;;;16.88;86.02;99669.03;5069590;28;20208;-62
2023/07/29 02:50:07;;;;;;;9.88;8.80;;;;;;;16.91;86.09;99668.06;5067757;28;20209;-63
2023/07/29 02:52:35;;;;;;;9.75;8.75;;;;;;;16.91;85.66;99660.25;5064777;28;20209;-61
2023/07/29 02:55:03;;;;;;;10.65;9.15;;;;;;;16.89;85.56;99669.88;5068369;28;20740;-63
2023/07/29 02:57:31;;;;;;;11.43;9.30;;;;;;;16.89;85.63;99670.72;5071304;28;20201;-62
2023/07/29 02:59:59;;;;;;;12.68;9.43;;;;;;;16.88;85.60;99676.84;5071084;28;20210;-62
2023/07/29 03:02:27;;;;;;;12.32;9.63;;;;;;;16.89;85.63;99685.50;5070178;28;20239;-63
2023/07/29 03:04:57;;;;;;;10.77;9.65;;;;;;;16.87;85.56;99682.13;5064692;28;20301;-63
2023/07/29 03:07:25;;;;;;;13.43;9.20;;;;;;;16.87;85.73;99685.56;5067726;28;20203;-62
2023/07/29 03:09:53;;;;;;;12.10;8.95;;;;;;;16.87;85.74;99688.16;5070620;28;20228;-61
2023/07/29 03:12:21;;;;;;;14.40;9.48;;;;;;;16.88;85.59;99684.66;5062113;28;20208;-62
2023/07/29 03:14:49;;;;;;;9.40;8.40;;;;;;;16.86;85.44;99685.63;5070973;28;20655;-62
2023/07/29 03:17:17;;;;;;;13.20;9.13;;;;;;;16.88;85.42;99692.47;5070302;28;20575;-62
2023/07/29 03:19:45;;;;;;;10.38;9.30;;;;;;;16.86;85.25;99691.69;5069260;28;20235;-62
2023/07/29 03:22:14;;;;;;;11.13;8.90;;;;;;;16.87;84.96;99692.53;5066715;28;20204;-63
2023/07/29 03:24:42;;;;;;;11.10;8.98;;;;;;;16.83;85.12;99691.81;5070916;28;20201;-64
2023/07/29 03:27:10;;;;;;;10.85;8.65;;;;;;;16.80;85.31;99686.75;5066212;28;20193;-63
2023/07/29 03:29:38;;;;;;;11.60;9.18;;;;;;;16.82;85.33;99692.72;5065102;28;20204;-63
2023/07/29 03:32:07;;;;;;;11.80;8.63;;;;;;;16.82;85.35;99695.31;5068326;28;20671;-64
2023/07/29 03:34:35;;;;;;;13.95;9.73;;;;;;;16.87;85.51;99695.13;5069356;28;20217;-63
2023/07/29 03:37:03;;;;;;;12.15;10.18;;;;;;;16.87;85.24;99695.13;5066395;28;20713;-63
2023/07/29 03:39:32;;;;;;;15.65;10.90;;;;;;;16.91;85.27;99699.28;5070106;28;20270;-62
2023/07/29 03:42:00;;;;;;;15.70;9.90;;;;;;;16.96;85.25;99699.09;5062658;28;20213;-62
2023/07/29 03:44:28;;;;;;;18.17;10.13;;;;;;;16.96;84.68;99701.69;5066559;28;20346;-64
2023/07/29 03:46:56;;;;;;;12.40;10.20;;;;;;;16.96;85.16;99704.28;5071224;28;20239;-63
2023/07/29 03:49:24;;;;;;;13.27;9.45;;;;;;;16.96;85.10;99706.91;5063353;28;20516;-62
2023/07/29 03:51:52;;;;;;;12.68;9.52;;;;;;;17.01;85.23;99710.13;5070254;28;20232;-63
2023/07/29 03:54:20;;;;;;;9.48;7.97;;;;;;;17.01;84.91;99710.13;5069382;28;20207;-63
2023/07/29 03:56:49;;;;;;;12.82;9.32;;;;;;;17.06;84.48;99705.59;5067500;28;20207;-64
2023/07/29 03:59:18;;;;;;;11.88;8.48;;;;;;;17.09;83.87;99714.13;5069701;28;20547;-65
2023/07/29 04:01:46;;;;;;;12.15;8.45;;;;;;;17.10;84.01;99722.75;5068747;28;20292;-63
2023/07/29 04:04:14;;;;;;;9.35;8.40;;;;;;;17.14;84.19;99711.31;5068017;28;20240;-65
2023/07/29 04:06:42;;;;;;;8.90;7.93;;;;;;;17.21;84.13;99712.72;5063733;28;20587;-65
2023/07/29 04:09:10;;;;;;;9.50;8.50;;;;;;;17.33;83.93;99713.94;5068468;28;20201;-63
2023/07/29 04:11:38;;;;;;;9.20;8.30;;;;;;;17.41;83.26;99708.38;5069122;28;20636;-63
2023/07/29 04:14:07;;;;;;;10.90;9.10;;;;;;;17.47;82.58;99716.75;5066382;28;20239;-64
2023/07/29 04:16:35;;;;;;;9.50;8.50;;;;;;;17.53;82.43;99718.25;5065880;28;20203;-64
2023/07/29 04:19:04;;;;;;;9.88;8.70;;;;;;;17.60;81.99;99719.69;5067191;28;20221;-65
2023/07/29 04:21:33;;;;;;;8.82;7.93;;;;;;;17.62;81.52;99723.03;5061943;28;20205;-64
2023/07/29 04:24:02;;;;;;;9.23;8.32;;;;;;;17.71;81.69;99720.03;5069247;28;20648;-65
2023/07/29 04:26:30;;;;;;;10.18;9.18;;;;;;;17.82;81.35;99735.19;5069868;28;20221;-66
2023/07/29 04:29:01;;;;;;;9.27;8.38;;;;;;;17.93;80.85;99727.72;5070421;28;20557;-64
2023/07/29 04:31:30;;;;;;;9.63;8.73;;;;;;;18.06;80.30;99733.19;5069335;28;20209;-65
2023/07/29 04:33:58;;;;;;;9.07;8.27;;;;;;;18.17;79.89;99736.13;5068477;28;20229;-64
2023/07/29 04:36:26;;;;;;;8.52;7.65;;;;;;;18.24;78.88;99737.53;5068424;28;20205;-63
2023/07/29 04:38:54;;;;;;;9.75;8.77;;;;;;;18.28;78.36;99749.50;5064918;28;20263;-63
2023/07/29 04:41:22;;;;;;;8.43;7.63;;;;;;;18.29;77.74;99747.75;5062945;28;20202;-64
2023/07/29 04:43:50;;;;;;;8.90;7.93;;;;;;;18.27;78.55;99750.44;5068867;28;20725;-64
2023/07/29 04:46:18;;;;;;;9.68;7.90;;;;;;;18.32;78.26;99753.66;5063964;28;20715;-64
2023/07/29 04:48:47;;;;;;;8.90;8.00;;;;;;;18.45;78.16;99751.31;5068548;28;20248;-64
2023/07/29 04:51:15;;;;;;;9.13;8.25;;;;;;;18.57;77.67;99757.69;5064471;28;20222;-62
2023/07/29 04:53:43;;;;;;;9.35;8.50;;;;;;;18.73;76.37;99757.81;5057419;28;20287;-65
2023/07/29 04:56:11;;;;;;;9.25;8.38;;;;;;;18.85;75.95;99759.78;5065680;28;20208;-63
2023/07/29 04:58:39;;;;;;;9.00;8.20;;;;;;;18.93;75.95;99759.44;5071554;28;20203;-63
2023/07/29 05:01:07;;;;;;;8.60;7.70;;;;;;;19.09;75.60;99762.09;5075189;28;20662;-64
2023/07/29 05:03:35;;;;;;;9.88;8.90;;;;;;;19.21;74.51;99762.28;5074967;28;20201;-65
2023/07/29 05:06:04;;;;;;;11.32;9.43;;;;;;;19.16;73.64;99776.53;5072558;28;20202;-65
2023/07/29 05:08:32;;;;;;;9.20;8.30;;;;;;;18.99;73.83;99777.38;5075982;28;20297;-65
2023/07/29 05:11:00;;;;;;;10.02;9.13;;;;;;;18.93;74.54;99777.72;5069227;28;20678;-64
2023/07/29 05:13:28;;;;;;;9.40;8.60;;;;;;;18.92;74.48;99778.59;5073201;28;20301;-65
2023/07/29 05:15:56;;;;;;;10.75;9.57;;;;;;;18.85;74.50;99779.84;5072681;28;20201;-64
2023/07/29 05:18:24;;;;;;;10.70;9.70;;;;;;;18.85;74.76;99777.22;5075335;28;20244;-64
2023/07/29 05:20:52;;;;;;;9.55;8.65;;;;;;;18.86;74.98;99782.38;5075441;28;20216;-65
2023/07/29 05:23:22;;;;;;;11.23;10.13;;;;;;;18.87;74.55;99780.63;5075836;28;20236;-65
2023/07/29 05:25:50;;;;;;;11.38;10.13;;;;;;;18.84;74.34;99776.38;5064985;28;20201;-65
2023/07/29 05:28:18;;;;;;;10.23;9.23;;;;;;;18.82;74.91;99776.47;5071727;28;20220;-66
2023/07/29 05:30:46;;;;;;;12.77;11.13;;;;;;;18.81;74.53;99777.41;5073693;28;20231;-65
2023/07/29 05:33:14;;;;;;;11.68;10.65;;;;;;;18.96;75.04;99783.63;5073651;28;20745;-66
2023/07/29 05:35:42;;;;;;;11.80;10.77;;;;;;;19.10;73.98;99780.28;5075354;28;20567;-66
2023/07/29 05:38:10;;;;;;;11.45;10.35;;;;;;;19.20;73.61;99770.22;5075381;28;20591;-66
2023/07/29 05:40:39;;;;;;;11.52;9.98;;;;;;;19.32;72.85;99774.81;5072675;28;20248;-66
2023/07/29 05:43:07;;;;;;;10.85;9.82;;;;;;;19.40;72.20;99777.00;5073576;28;20572;-65
2023/07/29 05:45:36;;;;;;;10.48;9.32;;;;;;;19.39;71.83;99775.34;5070426;28;20197;-65
2023/07/29 05:48:04;;;;;;;11.45;10.15;;;;;;;19.30;71.29;99766.22;5076288;28;20537;-66
2023/07/29 05:50:32;;;;;;;10.82;9.82;;;;;;;19.23;72.50;99770.91;5073432;28;20197;-66
2023/07/29 05:53:00;;;;;;;11.20;10.20;;;;;;;19.38;72.74;99776.28;5066916;28;20223;-66
2023/07/29 05:55:28;;;;;;;11.82;10.63;;;;;;;19.62;71.65;99780.22;5073246;28;20208;-66
2023/07/29 05:57:57;;;;;;;11.63;10.43;;;;;;;19.89;71.03;99784.91;5075115;28;20662;-66
2023/07/29 06:00:25;;;;;;;10.93;9.82;;;;;;;20.30;69.93;99789.63;5070881;28;20659;-67
2023/07/29 06:02:53;;;;;;;10.70;9.65;;;;;;;21.02;68.58;99788.16;5072491;28;20224;-68
2023/07/29 06:05:22;;;;;;;11.30;10.20;;;;;;;23.17;66.00;99780.75;5072429;28;20212;-66
2023/07/29 06:07:50;;;;;;;10.63;9.63;;;;;;;25.64;54.14;99782.03;5074020;28;20197;-66
2023/07/29 06:10:18;;;;;;;9.88;8.90;;;;;;;26.90;49.82;99778.84;5068766;28;20209;-66
2023/07/29 06:12:47;;;;;;;9.30;8.50;;;;;;;29.17;44.11;99782.69;5072286;28;20201;-66
2023/07/29 06:15:16;;;;;;;7.80;7.20;;;;;;;31.49;38.33;99788.25;5068603;28;20205;-66
2023/07/29 06:17:44;;;;;;;8.10;7.30;;;;;;;33.44;33.51;99783.38;5061044;28;20205;-66
2023/07/29 06:20:12;;;;;;;7.60;7.00;;;;;;;34.74;30.91;99786.38;5068592;28;20267;-67
2023/07/29 06:22:40;;;;;;;7.80;7.20;;;;;;;35.78;29.00;99781.94;5065860;28;20731;-68
2023/07/29 06:25:09;;;;;;;7.30;6.68;;;;;;;36.68;27.72;99783.38;5071934;28;20213;-67
2023/07/29 06:27:37;;;;;;;6.80;6.20;;;;;;;37.32;26.87;99791.28;5068163;28;20212;-68
2023/07/29 06:30:06;;;;;;;6.47;5.88;;;;;;;38.12;25.13;99786.31;5065904;28;20252;-68
2023/07/29 06:32:35;;;;;;;7.07;6.57;;;;;;;38.86;24.22;99788.91;5066869;28;20241;-69
2023/07/29 06:35:04;;;;;;;6.45;5.95;;;;;;;39.64;22.94;99796.22;5068464;28;20240;-68
2023/07/29 06:37:33;;;;;;;7.38;6.65;;;;;;;39.24;23.19;99798.19;5069202;28;20209;-68
2023/07/29 06:40:01;;;;;;;6.63;6.07;;;;;;;38.57;23.94;99800.06;5065717;28;20217;-68
2023/07/29 06:42:29;;;;;;;6.20;5.60;;;;;;;38.53;24.21;99809.59;5070751;28;20216;-68
2023/07/29 06:44:56;;;;;;;6.90;6.30;;;;;;;39.06;23.43;99813.13;5065045;28;20729;-67
2023/07/29 06:47:24;;;;;;;6.93;6.43;;;;;;;39.27;22.59;99809.41;5064304;28;20250;-67
2023/07/29 06:49:55;;;;;;;6.15;5.53;;;;;;;38.12;23.67;99808.66;5061996;28;20219;-69
2023/07/29 06:52:23;;;;;;;7.22;6.32;;;;;;;37.98;24.30;99808.81;5072442;28;20205;-67
2023/07/29 06:54:51;;;;;;;7.07;6.15;;;;;;;38.42;23.92;99798.41;5072358;28;20205;-67
2023/07/29 06:57:19;;;;;;;6.90;6.20;;;;;;;39.07;23.21;99795.09;5069064;28;20580;-68
2023/07/29 06:59:47;;;;;;;7.10;5.95;;;;;;;39.65;22.48;99797.06;5070423;28;20614;-67
2023/07/29 07:02:15;;;;;;;6.88;6.10;;;;;;;39.77;21.92;99796.22;5064851;28;20682;-68
2023/07/29 07:04:43;;;;;;;7.15;5.72;;;;;;;39.52;22.36;99798.78;5066586;28;20797;-68
2023/07/29 07:07:12;;;;;;;6.30;5.75;;;;;;;39.61;21.90;99802.06;5068300;28;20207;-67
2023/07/29 07:09:40;;;;;;;6.35;5.75;;;;;;;40.00;21.84;99801.09;5070361;28;20201;-67
2023/07/29 07:12:08;;;;;;;5.45;5.05;;;;;;;39.83;21.49;99806.13;5070045;28;20261;-68
2023/07/29 07:14:37;;;;;;;6.07;5.57;;;;;;;38.39;23.59;99804.19;5068696;28;20918;-69
2023/07/29 07:17:06;;;;;;;5.97;5.57;;;;;;;37.89;23.15;99800.94;5067102;28;20212;-68
2023/07/29 07:19:35;;;;;;;6.13;5.70;;;;;;;38.14;23.16;99795.81;5068924;28;20205;-68
2023/07/29 07:22:03;;;;;;;5.70;5.30;;;;;;;38.37;23.30;99800.88;5068344;28;20266;-67
2023/07/29 07:24:33;;;;;;;5.82;5.22;;;;;;;39.21;22.46;99795.91;5065258;28;20589;-68
2023/07/29 07:27:01;;;;;;;5.68;5.05;;;;;;;40.08;21.06;99792.72;5069536;28;20583;-69
2023/07/29 07:29:30;;;;;;;4.57;4.15;;;;;;;41.16;19.69;99794.44;5069013;28;20224;-70
2023/07/29 07:32:00;;;;;;;4.88;4.47;;;;;;;42.06;18.65;99793.84;5066529;28;20231;-68
2023/07/29 07:34:28;;;;;;;4.25;3.95;;;;;;;42.25;18.83;99791.06;5066346;28;20228;-68
2023/07/29 07:36:56;;;;;;;4.47;4.07;;;;;;;42.98;17.65;99779.91;5070341;28;20201;-68
2023/07/29 07:39:24;;;;;;;5.13;4.00;;;;;;;43.49;17.58;99781.06;5069201;28;20595;-68
2023/07/29 07:41:53;;;;;;;5.15;4.28;;;;;;;43.50;17.27;99782.69;5065497;28;20200;-68
2023/07/29 07:44:21;;;;;;;3.78;3.47;;;;;;;43.49;17.02;99782.91;5064583;28;20651;-69
2023/07/29 07:46:49;;;;;;;3.75;3.55;;;;;;;43.44;16.79;99783.63;5068281;28;20628;-66
2023/07/29 07:49:17;;;;;;;4.22;3.92;;;;;;;43.29;16.83;99780.59;5064358;28;20719;-67
2023/07/29 07:51:45;;;;;;;3.60;3.40;;;;;;;43.23;17.30;99789.66;5067009;28;20213;-67
2023/07/29 07:54:13;;;;;;;3.78;3.47;;;;;;;43.13;17.21;99788.41;5061308;28;20250;-69
2023/07/29 07:56:41;;;;;;;4.53;4.13;;;;;;;43.01;17.33;99795.69;5061718;28;20235;-68
2023/07/29 07:59:10;;;;;;;4.32;4.03;;;;;;;42.70;17.75;99791.44;5067606;28;20239;-69
2023/07/29 08:01:40;;;;;;;4.00;3.70;;;;;;;41.06;19.21;99782.47;5066628;28;20201;-67
2023/07/29 08:04:08;;;;;;;5.50;4.40;;;;;;;38.35;21.94;99785.97;5058750;28;20205;-66
2023/07/29 08:06:36;;;;;;;5.40;3.88;;;;;;;35.72;25.29;99794.28;5066879;28;20731;-66
2023/07/29 08:09:04;;;;;;;5.05;4.50;;;;;;;33.87;27.85;99795.41;5064463;28;20209;-67
2023/07/29 08:11:32;;;;;;;5.10;4.05;;;;;;;33.18;30.19;99791.63;5059948;28;20681;-68
2023/07/29 08:14:01;;;;;;;5.25;4.22;;;;;;;34.37;28.53;99790.63;5062708;28;20212;-68
2023/07/29 08:16:30;;;;;;;4.25;3.95;;;;;;;35.79;25.86;99787.13;5063548;28;20253;-69
2023/07/29 08:18:58;;;;;;;4.53;3.35;;;;;;;36.73;24.40;99781.75;5071065;28;20574;-67
2023/07/29 08:21:27;;;;;;;4.00;3.65;;;;;;;36.65;24.33;99783.75;5069000;28;20209;-67
2023/07/29 08:23:55;;;;;;;4.45;3.63;;;;;;;35.61;25.10;99780.47;5068347;28;20255;-67
2023/07/29 08:26:23;;;;;;;5.53;3.80;;;;;;;33.88;27.04;99789.06;5065563;28;20217;-67
2023/07/29 08:28:51;;;;;;;4.57;3.80;;;;;;;32.34;30.12;99788.22;5065723;28;20205;-67
2023/07/29 08:31:22;;;;;;;3.80;3.45;;;;;;;31.35;31.83;99783.50;5067503;28;20572;-68
2023/07/29 08:33:51;;;;;;;5.80;3.00;;;;;;;30.41;32.33;99788.53;5070145;28;20229;-68
2023/07/29 08:36:19;;;;;;;4.50;3.35;;;;;;;29.51;34.31;99787.47;5069053;28;20215;-66
2023/07/29 08:38:47;;;;;;;3.45;2.97;;;;;;;28.65;35.94;99785.66;5065651;28;20198;-68
2023/07/29 08:41:17;;;;;;;3.80;3.20;;;;;;;28.10;36.86;99781.81;5068135;28;20582;-67
2023/07/29 08:43:51;;;;;;;3.25;2.95;;;;;;;27.75;38.12;99784.91;5070509;28;20202;-68
2023/07/29 08:46:20;;;;;;;3.95;3.15;;;;;;;27.51;39.00;99780.75;5069092;28;20290;-67
2023/07/29 08:48:49;;;;;;;2.85;2.50;;;;;;;27.18;39.31;99787.16;5064297;28;20214;-67
2023/07/29 08:51:20;;;;;;;4.32;2.47;;;;;;;26.72;39.58;99785.66;5070509;28;20573;-67
2023/07/29 08:53:48;;;;;;;2.70;2.50;;;;;;;26.39;40.46;99787.44;5069376;28;20207;-66
2023/07/29 08:56:17;;;;;;;3.95;2.05;;;;;;;26.00;40.95;99789.72;5067429;28;20205;-65
2023/07/29 08:58:46;;;;;;;4.03;2.17;;;;;;;26.05;41.36;99796.44;5065197;28;20213;-68
2023/07/29 09:01:15;;;;;;;4.43;2.55;;;;;;;26.11;41.27;99786.22;5061348;28;20220;-67
2023/07/29 09:03:44;;;;;;;3.92;2.28;;;;;;;25.89;41.67;99792.38;5063904;28;20205;-68
2023/07/29 09:06:15;;;;;;;2.53;2.22;;;;;;;25.76;42.02;99789.81;5062178;28;20213;-68
2023/07/29 09:08:46;;;;;;;2.60;2.40;;;;;;;25.75;42.30;99787.31;5069837;28;20209;-69
2023/07/29 09:11:16;;;;;;;1.95;1.85;;;;;;;25.90;42.08;99790.56;5061584;28;20221;-67
2023/07/29 09:13:45;;;;;;;2.05;1.90;;;;;;;26.14;42.04;99785.97;5067753;28;20201;-68
2023/07/29 09:16:14;;;;;;;2.00;1.90;;;;;;;26.25;41.18;99783.31;5069433;28;20308;-67
2023/07/29 09:18:42;;;;;;;2.83;2.22;;;;;;;26.43;40.92;99788.03;5063257;28;20889;-68
2023/07/29 09:21:10;;;;;;;2.58;1.77;;;;;;;26.58;40.51;99783.31;5062607;28;20201;-68
2023/07/29 09:23:42;;;;;;;2.15;2.05;;;;;;;26.63;39.74;99782.00;5064971;28;20231;-68
2023/07/29 09:26:12;;;;;;;2.67;1.98;;;;;;;26.76;39.44;99779.16;5067886;28;20300;-69
2023/07/29 09:28:41;;;;;;;1.70;1.60;;;;;;;26.86;38.83;99776.59;5063898;28;20209;-68
2023/07/29 09:31:20;;;;;;;4.80;2.05;;;;;;;26.89;38.96;99781.63;5069750;28;20615;-70
2023/07/29 09:33:49;;;;;;;2.08;1.70;;;;;;;27.05;38.70;99773.25;5063855;28;20298;-69
2023/07/29 09:36:19;;;;;;;2.08;1.98;;;;;;;27.29;38.21;99770.34;5063257;28;20198;-67
2023/07/29 09:38:47;;;;;;;3.65;1.70;;;;;;;27.52;37.98;99771.00;5060324;28;20605;-70
2023/07/29 09:41:17;;;;;;;2.55;1.70;;;;;;;28.35;38.00;99770.69;5067778;28;20198;-71
2023/07/29 09:43:46;;;;;;;2.25;2.00;;;;;;;28.87;36.01;99765.97;5064984;28;20625;-71
2023/07/29 09:46:14;;;;;;;3.00;1.83;;;;;;;28.98;35.49;99770.31;5064880;28;20197;-70
2023/07/29 09:48:45;;;;;;;1.90;1.80;;;;;;;29.87;34.77;99769.03;5073950;28;20201;-71
2023/07/29 09:51:15;;;;;;;1.80;1.70;;;;;;;30.01;33.81;99763.19;5060851;28;20206;-71
2023/07/29 09:53:44;;;;;;;2.03;1.83;;;;;;;30.29;33.73;99761.34;5065347;28;20208;-71
2023/07/29 09:56:15;;;;;;;6.40;2.58;;;;;;;31.55;31.11;99752.16;5063216;28;20201;-70
2023/07/29 09:58:46;;;;;;;1.85;1.70;;;;;;;32.84;29.61;99741.91;5072255;28;20640;-73
2023/07/29 10:01:15;;;;;;;1.30;1.23;;;;;;;34.33;27.07;99747.34;5072283;28;20204;-71
2023/07/29 10:03:44;;;;;;;4.53;1.77;;;;;;;35.87;24.51;99743.28;5068617;28;20306;-72
2023/07/29 10:06:15;;;;;;;1.40;1.30;;;;;;;36.93;23.49;99733.56;5065581;28;20286;-66
2023/07/29 10:08:43;;;;;;;1.95;1.27;;;;;;;37.77;21.29;99735.25;5065828;28;20278;-65
2023/07/29 10:11:13;;;;;;;1.30;1.20;;;;;;;38.17;21.04;99730.81;5062251;28;20668;-65
2023/07/29 10:13:40;;;;;;;1.40;1.30;;;;;;;39.00;19.94;99740.41;5064262;28;20645;-64
2023/07/29 10:16:16;;;;;;;1.50;1.40;;;;;;;39.05;20.10;99744.13;5065471;28;20227;-66
2023/07/29 10:18:44;;;;;;;2.85;1.38;;;;;;;38.71;19.79;99747.06;5073064;28;20197;-65
2023/07/29 10:21:13;;;;;;;1.65;1.52;;;;;;;37.90;20.40;99748.78;5065297;28;20193;-70
2023/07/29 10:23:48;;;;;;;1.40;1.27;;;;;;;37.70;20.28;99745.16;5071096;28;20207;-70
2023/07/29 10:26:20;;;;;;;1.70;1.38;;;;;;;38.11;20.61;99730.81;5073555;28;20205;-69
2023/07/29 10:28:52;;;;;;;2.03;1.60;;;;;;;38.46;20.61;99731.50;5073730;28;20255;-69
2023/07/29 10:31:24;;;;;;;1.50;1.35;;;;;;;38.51;20.68;99725.50;5071023;28;20197;-70
2023/07/29 10:33:55;;;;;;;1.42;1.30;;;;;;;38.37;20.42;99728.19;5068242;28;20233;-71
2023/07/29 10:36:24;;;;;;;1.40;1.30;;;;;;;38.32;20.80;99730.63;5071465;28;20225;-70
2023/07/29 10:38:53;;;;;;;1.55;1.45;;;;;;;38.45;19.23;99726.34;5069093;28;20255;-70
2023/07/29 10:41:21;;;;;;;1.48;1.38;;;;;;;37.56;19.84;99730.00;5072875;28;20220;-71
2023/07/29 10:43:49;;;;;;;2.65;1.80;;;;;;;36.69;21.27;99726.78;5070255;28;20708;-71
2023/07/29 10:46:20;;;;;;;1.65;1.55;;;;;;;35.21;23.20;99735.22;5065780;28;20202;-71
2023/07/29 10:48:55;;;;;;;1.73;1.63;;;;;;;34.68;23.86;99730.88;5073179;28;20201;-70
2023/07/29 10:51:25;;;;;;;1.40;1.30;;;;;;;33.71;24.62;99726.00;5071037;28;20225;-72
2023/07/29 10:53:54;;;;;;;1.67;1.40;;;;;;;32.79;26.28;99727.41;5071675;28;20221;-71
2023/07/29 10:56:28;;;;;;;1.60;1.50;;;;;;;31.72;27.33;99727.25;5068004;28;20201;-71
2023/07/29 10:59:21;;;;;;;1.30;1.20;;;;;;;32.44;27.41;99722.28;5073874;28;20594;-72
2023/07/29 11:01:55;;;;;;;1.50;1.40;;;;;;;34.17;24.90;99717.22;5071924;28;20209;-71
2023/07/29 11:04:27;;;;;;;3.33;1.33;;;;;;;35.14;23.65;99709.38;5069601;28;20204;-69
2023/07/29 11:07:29;;;;;;;1.33;1.23;;;;;;;35.90;22.84;99705.38;5062548;28;20224;-71
2023/07/29 11:10:05;;;;;;;1.50;1.40;;;;;;;36.51;22.39;99703.09;5070456;28;20679;-70
2023/07/29 11:12:54;;;;;;;1.63;1.10;;;;;;;36.95;21.95;99709.22;5064025;28;20225;-70
2023/07/29 11:15:26;;;;;;;1.90;1.67;;;;;;;37.31;21.35;99714.38;5066514;28;20645;-72
2023/07/29 11:17:55;;;;;;;1.40;1.20;;;;;;;37.37;20.97;99702.00;5070181;28;20235;-68
2023/07/29 11:20:27;;;;;;;3.75;1.40;;;;;;;36.52;21.95;99694.00;5072602;28;20679;-66
2023/07/29 11:22:55;;;;;;;1.50;1.40;;;;;;;35.93;22.86;99694.25;5070593;28;20252;-67
2023/07/29 11:25:30;;;;;;;1.20;1.10;;;;;;;35.57;23.78;99683.53;5069079;28;20209;-73
2023/07/29 11:28:02;;;;;;;1.58;1.48;;;;;;;36.06;23.50;99684.72;5056839;28;20194;-72
2023/07/29 11:30:34;;;;;;;2.40;1.70;;;;;;;36.66;22.79;99672.66;5069723;28;20208;-73
2023/07/29 11:33:02;;;;;;;1.65;1.55;;;;;;;36.84;22.16;99669.47;5072110;28;20311;-64
2023/07/29 11:35:33;;;;;;;1.25;1.15;;;;;;;36.67;22.93;99674.28;5072012;28;20296;-65
2023/07/29 11:38:01;;;;;;;1.60;1.50;;;;;;;36.72;22.51;99669.19;5072202;28;20544;-64
2023/07/29 11:40:29;;;;;;;1.50;1.20;;;;;;;36.57;21.90;99669.28;5070911;28;20558;-63